NY/NJ Local METAR Reports

 HOBOKEN  -  Coastal Flood Advisory Coastal Flood Advisory  
 NEW YORK CITY  -  Coastal Flood Advisory Coastal Flood Advisory  
KNYC - NYC/Central Park, NY, USA
Distance from station: NE 4mi, 7km
Updated: 10/01/2022 7:33pm
Overcast
Overcast
 Wind from NNE
Wind: NNE 12 mph , 19 km/h, Gust: 20 mph , 31 km/h
Temperature: 59°F , 15°C
Dew Point: 55°F , 13°C
Humidity: 88%
Barometer: 30.00 inHg , 1015.9 hPa
Clouds: Overcast
Visibility: 9 miles , 14 km
Cloud details: Mostly cloudy 1000 ft
Overcast 1500 ft
2022/10/01 23:33 KNYC 012333Z AUTO 03010G17KT 9SM BKN010 OVC015 15/13 A3000 RMK AO2 RAE23 CIG 008V013 P0000 T01500133 $
KEWR - Newark, NJ, USA
Distance from station: WSW 8mi, 13km
Updated: 10/01/2022 7:15pm
Light drizzle, Mist, Overcast
Light drizzle, Mist, Overcast
 Wind from NNE
Wind: NNE 14 mph , 22 km/h
Temperature: 55°F , 13°C
Dew Point: 55°F , 13°C
Humidity: 100%
Barometer: 29.97 inHg , 1014.9 hPa
Summary: Light drizzle, Mist
Clouds: Overcast
Visibility: 5 miles , 8 km
Cloud details: Mostly cloudy 900 ft
Overcast 1500 ft
2022/10/01 23:15 KEWR 012315Z 03012KT 5SM -DZ BR BKN009 OVC015 13/13 A2997 RMK T01330133
 
KLGA - NYC/La Guardia, NY, USA
Distance from station: ENE 8mi, 13km
Updated: 10/01/2022 7:32pm
Light rain, Overcast
Light rain, Overcast
 Wind from NNE
Wind: NNE 16 mph , 26 km/h
Temperature: 59°F , 15°C
Dew Point: 55°F , 13°C
Humidity: 88%
Barometer: 29.97 inHg , 1014.9 hPa
Summary: Light rain
Clouds: Overcast
Visibility: 8 miles , 13 km
Cloud details: Partly cloudy 800 ft
Overcast 1300 ft
2022/10/01 23:32 KLGA 012332Z 03014KT 8SM -RA SCT008 OVC013 15/13 A2997 RMK AO2 P0001 T01500128
KTEB - Teterboro, NJ, USA
Distance from station: N 9mi, 14km
Updated: 10/01/2022 6:58pm
Light rain, Mist, Overcast
Light rain, Mist, Overcast
 Wind from NE
Wind: NE 7 mph , 11 km/h
Temperature: 59°F , 15°C
Dew Point: 55°F , 13°C
Humidity: 88%
Barometer: 29.96 inHg , 1014.6 hPa
Summary: Light rain, Mist
Clouds: Overcast
Visibility: 10 miles , 16 km
Cloud details: Overcast 1800 ft
2022/10/01 22:58 KTEB 012258Z 04006KT 10SM -RA BR OVC018 15/13 A2996 RMK AO2 P0000 T01500133
 
KJFK - NYC/Jfk Arpt, NY, USA
Distance from station: ESE 16mi, 25km
Updated: 10/01/2022 7:40pm
Light rain, Overcast
Light rain, Overcast
 Wind from NNE
Wind: NNE 17 mph , 28 km/h, Gust: 23 mph , 37 km/h
Temperature: 57°F , 14°C
Dew Point: 55°F , 13°C
Humidity: 94%
Barometer: 29.96 inHg , 1014.6 hPa
Summary: Light rain
Clouds: Overcast
Visibility: 10 miles , 16 km
Cloud details: Overcast 100 ft
2022/10/01 23:40 KJFK 012340Z 03015G20KT 10SM -RA OVC001 14/13 A2996 RMK AO2 RAB03 P0000 T01390133
KCDW - Caldwell, NJ, USA
Distance from station: NW 16mi, 26km
Updated: 10/01/2022 6:53pm
Overcast
Overcast
 Wind from ENE
Wind: ENE 9 mph , 15 km/h
Temperature: 59°F , 15°C
Dew Point: 54°F , 12°C
Humidity: 82%
Barometer: 29.98 inHg , 1015.2 hPa
Clouds: Overcast
Visibility: 10 miles , 16 km
Cloud details: Overcast 2100 ft
2022/10/01 22:53 KCDW 012253Z 06008KT 10SM OVC021 15/12 A2998 RMK AO2 RAE50 SLP158 P0001 T01500122
 
KMMU - Morristown Muni, NJ, USA
Distance from station: W 20mi, 33km
Updated: 10/01/2022 7:45pm
Light drizzle, Overcast
Light drizzle, Overcast
 Wind from NNE
Wind: NNE 3 mph , 6 km/h
Temperature: 61°F , 16°C
Dew Point: 59°F , 15°C
Humidity: 94%
Barometer: 29.98 inHg , 1015.2 hPa
Summary: Light Drizzle
Clouds: Overcast
Visibility: 7 miles , 11 km
Cloud details: Overcast 2100 ft
2022/10/01 23:45 KMMU 012345Z 03003KT 7SM -DZ OVC021 16/15 A2998
KHPN - White Plains, NY, USA
Distance from station: NE 28mi, 46km
Updated: 10/01/2022 6:56pm
Overcast
Overcast
 Wind from NNE
Wind: NNE 12 mph , 19 km/h
Temperature: 59°F , 15°C
Dew Point: 54°F , 12°C
Humidity: 82%
Barometer: 29.98 inHg , 1015.2 hPa
Clouds: Overcast
Visibility: 2 1/2 miles , 4 km
Cloud details: Overcast 1700 ft
2022/10/01 22:56 KHPN 012256Z 03010KT 2 1/2SM OVC017 15/12 A2998 RMK AO2 SFC VIS 10 SLP153 T01500117
 
KFRG - Farmingdale, NY, USA
Distance from station: E 32mi, 52km
Updated: 10/01/2022 7:00pm
Overcast
Overcast
 Wind from NE
Wind: NE 13 mph , 20 km/h, Gust: 21 mph , 33 km/h
Temperature: 61°F , 16°C
Dew Point: 55°F , 13°C
Humidity: 83%
Barometer: 29.96 inHg , 1014.6 hPa
Clouds: Overcast
Visibility: 8 miles , 13 km
Cloud details: Overcast 1100 ft
2022/10/01 23:00 KFRG 012300Z AUTO 04011G18KT 8SM OVC011 16/13 A2996 RMK AO2 T01560133
KSMQ - Somerville, NJ, USA
Distance from station: WSW 34mi, 55km
Updated: 10/01/2022 7:01pm
Light rain, Overcast
Light rain, Overcast
 Wind from NE
Wind: NE 7 mph , 11 km/h
Temperature: 57°F , 14°C
Dew Point: 55°F , 13°C
Humidity: 94%
Barometer: 29.95 inHg , 1014.2 hPa
Summary: Light rain
Clouds: Overcast
Visibility: 8 miles , 13 km
Cloud details: Overcast 1500 ft
2022/10/01 23:01 KSMQ 012301Z AUTO 04006KT 8SM -RA OVC015 14/13 A2995 RMK AO2 RAB2258 P0000 T01440133
 
KBLM - Belmar/Farmdale, NJ, USA
Distance from station: S 40mi, 64km
Updated: 10/01/2022 6:56pm
Light rain, Overcast
Light rain, Overcast
 Wind from NE
Wind: NE 13 mph , 20 km/h
Temperature: 61°F , 16°C
Barometer: 29.95 inHg , 1014.2 hPa
Summary: Light rain
Clouds: Overcast
Visibility: 3 miles , 5 km
Cloud details: Overcast 300 ft
2022/10/01 22:56 KBLM 012256Z AUTO 04011KT 3SM -RA OVC003 16/ A2995 RMK AO2 SLP142 P0000 T0161
K12N - Andover, NJ, USA
Distance from station: WNW 41mi, 67km
Updated: 10/01/2022 6:54pm

 Wind from NE
Wind: NE 8 mph , 13 km/h
Temperature: 61°F , 16°C
Dew Point: 46°F , 8°C
Humidity: 59%
Barometer: 29.98 inHg , 1015.2 hPa
2022/10/01 22:54 K12N 012254Z AUTO 04007KT 16/08 A2998 RMK AO1 SLP152 T01610083
 
KFWN - Sussex, NJ, USA
Distance from station: NW 45mi, 72km
Updated: 10/01/2022 6:53pm
Overcast
Overcast
 Wind from NNE
Wind: NNE 13 mph , 20 km/h, Gust: 20 mph , 31 km/h
Temperature: 61°F , 16°C
Dew Point: 43°F , 6°C
Humidity: 52%
Barometer: 30.00 inHg , 1015.9 hPa
Clouds: Overcast
Visibility: 10 miles , 16 km
Cloud details: Overcast 3700 ft
2022/10/01 22:53 KFWN 012253Z AUTO 03011G17KT 10SM OVC037 16/06 A3000 RMK AO2 SLP159 T01610061 $
KISP - Islip, NY, USA
Distance from station: E 49mi, 79km
Updated: 10/01/2022 6:56pm
Light rain, Mist, Overcast
Light rain, Mist, Overcast
 Wind from NE
Wind: NE 16 mph , 26 km/h, Gust: 23 mph , 37 km/h
Temperature: 61°F , 16°C
Dew Point: 57°F , 14°C
Humidity: 88%
Barometer: 29.95 inHg , 1014.2 hPa
Summary: Light rain, Mist
Clouds: Overcast
Visibility: 3 miles , 5 km
Cloud details: Overcast 700 ft
2022/10/01 22:56 KISP 012256Z 04014G20KT 3SM -RA BR OVC007 16/14 A2995 RMK AO2 DZE39RAB39 SLP142 P0000 T01560144